createdAt,value
2023-06-13T00:04:46.564Z,51.21
2023-06-13T00:09:49.509Z,50.96
2023-06-13T00:14:53.062Z,51.20
2023-06-13T00:19:56.713Z,50.98
2023-06-13T00:24:59.469Z,51.89
2023-06-13T00:30:02.328Z,52.14
2023-06-13T00:35:09.972Z,52.06
2023-06-13T00:40:13.604Z,52.55
2023-06-13T00:45:23.944Z,53.00
2023-06-13T00:50:32.017Z,52.70
2023-06-13T00:55:34.758Z,52.24
2023-06-13T01:00:39.300Z,52.52
2023-06-13T01:05:44.099Z,49.73
2023-06-13T01:10:53.852Z,46.59
2023-06-13T01:16:37.059Z,42.52
2023-06-13T01:21:41.456Z,39.93
2023-06-13T01:26:56.262Z,36.33
2023-06-13T01:31:59.926Z,32.86
2023-06-13T01:37:03.912Z,31.50
2023-06-13T01:42:07.785Z,29.97
2023-06-13T01:47:16.631Z,28.45
2023-06-13T01:52:29.529Z,26.63
2023-06-13T01:57:40.778Z,24.01
2023-06-13T02:02:44.876Z,22.34
2023-06-13T02:07:47.527Z,21.90
2023-06-13T02:12:50.329Z,21.16
2023-06-13T02:17:53.325Z,20.18
2023-06-13T02:22:58.231Z,18.49
2023-06-13T02:28:00.901Z,19.09
2023-06-13T02:33:03.725Z,20.43
2023-06-13T02:38:08.009Z,19.52
2023-06-13T02:43:10.780Z,18.35
2023-06-13T02:48:13.718Z,18.05
2023-06-13T02:53:16.499Z,16.41
2023-06-13T02:58:19.116Z,15.91
2023-06-13T03:03:25.036Z,16.19
2023-06-13T03:08:30.652Z,16.72
2023-06-13T03:13:34.699Z,17.20
2023-06-13T03:18:38.055Z,21.68
2023-06-13T03:23:42.347Z,27.30
2023-06-13T03:28:45.099Z,28.87
2023-06-13T03:33:48.287Z,32.12
2023-06-13T03:38:52.221Z,33.23
2023-06-13T03:43:55.846Z,36.06
2023-06-13T03:48:58.730Z,36.31
2023-06-13T03:54:01.595Z,37.04
2023-06-13T03:59:04.961Z,38.46
2023-06-13T04:04:08.152Z,38.29
2023-06-13T04:09:12.274Z,38.38
2023-06-13T04:14:15.007Z,38.97
2023-06-13T04:19:19.666Z,38.33
2023-06-13T04:24:23.146Z,38.97
2023-06-13T04:29:26.513Z,37.71
2023-06-13T04:34:32.868Z,36.44
2023-06-13T04:39:38.210Z,36.50
2023-06-13T04:44:42.135Z,36.35
2023-06-13T04:49:46.314Z,36.46
2023-06-13T04:54:49.068Z,35.50
2023-06-13T04:59:51.717Z,35.51
2023-06-13T05:04:56.929Z,35.30
2023-06-13T05:09:59.733Z,34.54
2023-06-13T05:15:02.643Z,33.97
2023-06-13T05:20:08.036Z,34.24
2023-06-13T05:25:13.195Z,34.70
2023-06-13T05:30:16.292Z,33.96
2023-06-13T05:35:19.298Z,34.03
2023-06-13T05:40:22.063Z,34.49
2023-06-13T05:45:24.678Z,33.80
2023-06-13T05:50:27.304Z,32.45
2023-06-13T05:55:29.966Z,32.75
2023-06-13T06:00:37.275Z,32.82
2023-06-13T06:05:40.730Z,33.59
2023-06-13T06:10:43.478Z,33.15
2023-06-13T06:15:46.186Z,32.89
2023-06-13T06:20:49.173Z,32.75
2023-06-13T06:25:52.472Z,33.45
2023-06-13T06:30:55.221Z,33.94
2023-06-13T06:35:58.114Z,34.04
2023-06-13T06:41:00.861Z,33.35
2023-06-13T06:46:04.981Z,32.77
2023-06-13T06:51:08.495Z,32.29
2023-06-13T06:56:11.180Z,33.00
2023-06-13T07:01:17.533Z,32.82
2023-06-13T07:06:20.465Z,31.56
2023-06-13T07:11:23.088Z,31.69
2023-06-13T07:16:25.880Z,31.82
2023-06-13T07:21:28.549Z,31.51
2023-06-13T07:26:31.227Z,31.01
2023-06-13T07:31:33.950Z,29.91
2023-06-13T07:36:39.025Z,29.85
2023-06-13T07:41:41.729Z,29.70
2023-06-13T07:46:45.591Z,29.40
2023-06-13T07:51:48.230Z,29.45
2023-06-13T07:56:53.134Z,28.84
2023-06-13T08:01:55.964Z,29.32
2023-06-13T08:07:01.670Z,29.15
2023-06-13T08:12:04.713Z,29.77
2023-06-13T08:17:07.654Z,29.40
2023-06-13T08:22:10.384Z,29.13
2023-06-13T08:27:20.614Z,28.94
2023-06-13T08:32:23.351Z,29.15
2023-06-13T08:37:26.215Z,28.27
2023-06-13T08:42:29.977Z,27.99
2023-06-13T08:47:38.575Z,28.35
2023-06-13T08:52:43.406Z,27.77
2023-06-13T08:57:48.943Z,27.58
2023-06-13T09:02:53.688Z,27.63
2023-06-13T09:08:18.085Z,27.36
2023-06-13T09:13:24.678Z,27.23
2023-06-13T09:18:28.745Z,27.90
2023-06-13T09:23:33.454Z,28.11
2023-06-13T09:28:43.369Z,29.85
2023-06-13T09:33:46.759Z,29.84
2023-06-13T09:38:49.956Z,29.11
2023-06-13T09:43:56.070Z,28.34
2023-06-13T09:48:58.766Z,29.05
2023-06-13T09:54:04.409Z,28.89
2023-06-13T09:59:07.588Z,28.33
2023-06-13T10:04:11.124Z,27.85
2023-06-13T10:09:13.736Z,27.29
2023-06-13T10:14:23.445Z,28.09
2023-06-13T10:19:26.989Z,27.56
2023-06-13T10:24:30.464Z,26.86
2023-06-13T10:29:54.922Z,26.45
2023-06-13T10:35:25.451Z,27.06
2023-06-13T10:40:28.163Z,27.53
2023-06-13T10:45:31.795Z,27.34
2023-06-13T10:50:41.922Z,27.73
2023-06-13T10:55:44.636Z,27.70
2023-06-13T11:00:47.312Z,27.03
2023-06-13T11:05:51.411Z,27.29
2023-06-13T11:10:56.887Z,27.53
2023-06-13T11:16:18.882Z,26.48
2023-06-13T11:21:21.465Z,26.06
2023-06-13T11:26:25.063Z,26.27
2023-06-13T11:31:29.841Z,27.12
2023-06-13T11:36:35.405Z,27.08
2023-06-13T11:41:38.958Z,26.90
2023-06-13T11:46:44.601Z,27.00
2023-06-13T11:51:47.358Z,27.58
2023-06-13T11:56:54.505Z,26.98
2023-06-13T12:01:57.287Z,26.44
2023-06-13T12:07:05.309Z,26.11
2023-06-13T12:12:08.268Z,26.60
2023-06-13T12:17:11.151Z,26.50
2023-06-13T12:22:17.076Z,25.99
2023-06-13T12:27:19.864Z,26.31
2023-06-13T12:32:26.376Z,26.08
2023-06-13T12:37:35.642Z,25.87
2023-06-13T12:42:38.392Z,25.53
2023-06-13T12:47:41.020Z,25.97
2023-06-13T12:52:43.659Z,25.69
2023-06-13T12:57:46.307Z,25.23
2023-06-13T13:02:49.245Z,25.85
2023-06-13T13:07:52.883Z,26.08
2023-06-13T13:12:55.679Z,25.46
2023-06-13T13:17:58.316Z,25.20
2023-06-13T13:23:04.131Z,25.17
2023-06-13T13:28:06.952Z,25.54
2023-06-13T13:33:09.740Z,25.81
2023-06-13T13:38:12.534Z,25.80
2023-06-13T13:43:15.199Z,25.36
2023-06-13T13:48:18.177Z,25.83
2023-06-13T13:53:21.041Z,25.47
2023-06-13T13:58:24.331Z,25.25
2023-06-13T14:03:27.132Z,25.00
2023-06-13T14:08:29.912Z,25.59
2023-06-13T14:13:34.088Z,24.98
2023-06-13T14:18:39.704Z,25.05
2023-06-13T14:23:42.370Z,25.74
2023-06-13T14:28:45.142Z,24.94
2023-06-13T14:33:49.719Z,25.39
2023-06-13T14:38:52.552Z,25.00
2023-06-13T14:43:55.347Z,25.06
2023-06-13T14:48:57.999Z,24.82
2023-06-13T14:54:00.826Z,25.00
2023-06-13T14:59:03.519Z,25.21
2023-06-13T15:04:07.487Z,25.31
2023-06-13T15:09:12.988Z,25.37
2023-06-13T15:14:15.949Z,25.58
2023-06-13T15:19:18.797Z,25.41
2023-06-13T15:24:22.557Z,25.33
2023-06-13T15:29:25.768Z,25.72
2023-06-13T15:34:28.827Z,25.97
2023-06-13T15:39:31.554Z,26.26
2023-06-13T15:44:34.317Z,26.55
2023-06-13T15:49:37.026Z,26.45
2023-06-13T15:54:39.707Z,26.36
2023-06-13T15:59:42.609Z,26.29
2023-06-13T16:04:45.434Z,26.85
2023-06-13T16:09:48.116Z,27.22
2023-06-13T16:14:50.916Z,27.24
2023-06-13T16:19:53.608Z,27.16
2023-06-13T16:24:56.911Z,26.64
2023-06-13T16:29:59.547Z,27.21
2023-06-13T16:35:03.451Z,27.06
2023-06-13T16:40:08.005Z,26.91
2023-06-13T16:45:10.800Z,26.40
2023-06-13T16:50:13.913Z,26.30
2023-06-13T16:55:17.002Z,26.82
2023-06-13T17:00:20.028Z,26.61
2023-06-13T17:05:22.745Z,27.04
2023-06-13T17:10:25.536Z,27.98
2023-06-13T17:15:28.375Z,28.46
2023-06-13T17:20:35.800Z,28.70
2023-06-13T17:25:41.073Z,28.62
2023-06-13T17:30:43.963Z,29.29
2023-06-13T17:35:46.769Z,30.16
2023-06-13T17:40:49.566Z,30.75
2023-06-13T17:45:53.759Z,31.07
2023-06-13T17:51:03.238Z,31.55
2023-06-13T17:56:06.077Z,32.71
2023-06-13T18:01:08.793Z,33.43
2023-06-13T18:06:12.699Z,34.07
2023-06-13T18:11:16.280Z,34.09
2023-06-13T18:16:19.005Z,34.74
2023-06-13T18:21:21.983Z,35.67
2023-06-13T18:26:24.664Z,36.19
2023-06-13T18:31:27.495Z,36.69
2023-06-13T18:36:30.784Z,37.22
2023-06-13T18:41:33.603Z,37.77
2023-06-13T18:46:36.488Z,38.15
2023-06-13T18:51:39.255Z,38.99
2023-06-13T18:56:42.009Z,38.92
2023-06-13T19:01:46.474Z,39.32
2023-06-13T19:06:49.185Z,39.61
2023-06-13T19:11:52.162Z,40.08
2023-06-13T19:16:55.196Z,40.69
2023-06-13T19:21:58.004Z,40.75
2023-06-13T19:27:00.913Z,41.03
2023-06-13T19:32:04.104Z,41.25
2023-06-13T19:37:07.840Z,41.75
2023-06-13T19:42:10.821Z,41.74
2023-06-13T19:47:13.526Z,41.92
2023-06-13T19:52:16.986Z,42.54
2023-06-13T19:57:20.129Z,42.94
2023-06-13T20:02:22.912Z,42.90
2023-06-13T20:07:29.319Z,43.30
2023-06-13T20:12:32.196Z,43.32
2023-06-13T20:17:36.880Z,43.74
2023-06-13T20:22:41.375Z,43.60
2023-06-13T20:27:45.507Z,43.97
2023-06-13T20:32:48.368Z,44.14
2023-06-13T20:37:51.550Z,44.19
2023-06-13T20:42:54.620Z,44.47
2023-06-13T20:47:58.068Z,45.20
2023-06-13T20:53:00.931Z,45.65
2023-06-13T20:58:04.386Z,46.02
2023-06-13T21:03:07.291Z,46.38
2023-06-13T21:08:12.181Z,47.17
2023-06-13T21:13:15.030Z,47.25
2023-06-13T21:18:18.273Z,46.96
2023-06-13T21:23:21.211Z,47.89
2023-06-13T21:28:24.055Z,47.64
2023-06-13T21:33:29.489Z,47.90
2023-06-13T21:38:32.819Z,47.82
2023-06-13T21:43:35.609Z,48.29
2023-06-13T21:48:40.764Z,48.51
2023-06-13T21:53:43.502Z,48.57
2023-06-13T21:58:46.252Z,49.80
2023-06-13T22:03:49.037Z,50.20
2023-06-13T22:08:51.815Z,50.78
2023-06-13T22:13:55.627Z,51.53
2023-06-13T22:18:59.969Z,52.37
2023-06-13T22:24:02.805Z,53.51
2023-06-13T22:29:06.934Z,54.61
2023-06-13T22:34:10.386Z,54.93
2023-06-13T22:39:13.223Z,55.39
2023-06-13T22:44:16.062Z,56.93
2023-06-13T22:49:18.786Z,57.66
2023-06-13T22:54:22.050Z,58.84
2023-06-13T22:59:25.228Z,58.87
2023-06-13T23:04:31.970Z,59.04
2023-06-13T23:09:35.026Z,59.29
2023-06-13T23:14:37.667Z,60.35
2023-06-13T23:19:41.365Z,61.44
2023-06-13T23:24:44.275Z,61.70
2023-06-13T23:29:48.455Z,61.61
2023-06-13T23:34:51.223Z,61.08
2023-06-13T23:39:54.019Z,61.32
2023-06-13T23:44:57.224Z,62.08
2023-06-13T23:49:59.927Z,63.52
2023-06-13T23:55:02.915Z,64.41
